createdAt,value
2023-05-05T00:00:33.791Z,10.44
2023-05-05T00:01:35.469Z,10.43
2023-05-05T00:02:37.106Z,10.42
2023-05-05T00:03:38.747Z,10.43
2023-05-05T00:04:40.407Z,10.39
2023-05-05T00:05:41.934Z,10.41
2023-05-05T00:06:43.510Z,10.39
2023-05-05T00:07:45.036Z,10.30
2023-05-05T00:08:46.954Z,10.19
2023-05-05T00:09:48.555Z,10.12
2023-05-05T00:10:51.528Z,10.08
2023-05-05T00:11:53.258Z,10.10
2023-05-05T00:12:54.914Z,10.08
2023-05-05T00:13:56.510Z,10.08
2023-05-05T00:14:58.116Z,10.07
2023-05-05T00:16:00.059Z,10.11
2023-05-05T00:17:01.636Z,10.11
2023-05-05T00:18:03.395Z,10.08
2023-05-05T00:19:04.984Z,10.11
2023-05-05T00:20:07.775Z,10.05
2023-05-05T00:21:09.541Z,10.06
2023-05-05T00:22:11.112Z,10.02
2023-05-05T00:23:13.518Z,10.04
2023-05-05T00:24:15.073Z,10.06
2023-05-05T00:25:16.694Z,10.06
2023-05-05T00:26:18.250Z,10.05
2023-05-05T00:27:23.554Z,10.02
2023-05-05T00:28:25.329Z,9.99
2023-05-05T00:29:26.886Z,10.01
2023-05-05T00:30:28.566Z,10.05
2023-05-05T00:31:30.116Z,10.07
2023-05-05T00:32:31.738Z,10.02
2023-05-05T00:33:33.349Z,10.08
2023-05-05T00:34:34.886Z,10.14
2023-05-05T00:35:36.446Z,10.19
2023-05-05T00:36:38.039Z,10.23
2023-05-05T00:37:39.581Z,10.20
2023-05-05T00:38:41.094Z,10.18
2023-05-05T00:39:44.354Z,10.13
2023-05-05T00:40:45.985Z,10.14
2023-05-05T00:41:47.512Z,10.12
2023-05-05T00:42:49.595Z,10.11
2023-05-05T00:43:51.137Z,10.19
2023-05-05T00:44:52.716Z,10.20
2023-05-05T00:46:02.719Z,10.18
2023-05-05T00:47:04.918Z,10.20
2023-05-05T00:48:06.669Z,10.15
2023-05-05T00:49:08.615Z,10.09
2023-05-05T00:50:14.048Z,10.05
2023-05-05T00:51:17.073Z,9.76
2023-05-05T00:52:18.733Z,9.60
2023-05-05T00:53:20.336Z,9.62
2023-05-05T00:54:22.414Z,9.55
2023-05-05T00:55:24.493Z,9.38
2023-05-05T00:56:27.091Z,9.24
2023-05-05T00:57:28.939Z,9.23
2023-05-05T00:58:30.578Z,9.22
2023-05-05T00:59:33.750Z,9.24
2023-05-05T01:00:35.421Z,9.11
2023-05-05T01:01:37.041Z,9.06
2023-05-05T01:02:39.960Z,9.13
2023-05-05T01:03:41.794Z,9.21
2023-05-05T01:04:43.489Z,9.27
2023-05-05T01:06:16.204Z,9.33
2023-05-05T01:07:28.339Z,9.31
2023-05-05T01:08:51.053Z,9.32
2023-05-05T01:10:18.185Z,9.30
2023-05-05T01:11:30.950Z,9.28
2023-05-05T01:13:00.189Z,9.25
2023-05-05T01:14:10.781Z,9.27
2023-05-05T01:15:23.749Z,9.16
2023-05-05T01:16:29.313Z,9.18
2023-05-05T01:17:42.632Z,9.25
2023-05-05T01:18:58.331Z,9.24
2023-05-05T01:20:14.651Z,9.23
2023-05-05T01:21:18.923Z,9.26
2023-05-05T01:22:24.815Z,9.27
2023-05-05T01:23:35.283Z,9.21
2023-05-05T01:24:55.325Z,9.21
2023-05-05T01:26:13.623Z,9.23
2023-05-05T01:27:35.024Z,9.12
2023-05-05T01:28:54.693Z,9.13
2023-05-05T01:30:01.912Z,9.14
2023-05-05T01:31:17.635Z,9.17
2023-05-05T01:32:25.507Z,9.16
2023-05-05T01:33:31.334Z,9.18
2023-05-05T01:34:36.917Z,9.16
2023-05-05T01:35:50.360Z,9.08
2023-05-05T01:36:58.430Z,9.02
2023-05-05T01:38:11.616Z,8.96
2023-05-05T01:39:16.311Z,8.94
2023-05-05T01:40:25.036Z,8.95
2023-05-05T01:41:32.094Z,9.01
2023-05-05T01:42:36.242Z,9.05
2023-05-05T01:43:39.622Z,9.09
2023-05-05T01:44:46.396Z,9.05
2023-05-05T01:45:48.963Z,9.03
2023-05-05T01:46:52.081Z,9.06
2023-05-05T01:47:56.216Z,9.09
2023-05-05T01:48:58.814Z,9.10
2023-05-05T01:50:01.422Z,9.12
2023-05-05T01:51:05.313Z,9.12
2023-05-05T01:52:08.880Z,9.16
2023-05-05T01:53:11.749Z,9.21
2023-05-05T01:54:15.166Z,9.21
2023-05-05T01:55:18.731Z,9.27
2023-05-05T01:56:23.724Z,9.28
2023-05-05T01:57:27.833Z,9.25
2023-05-05T01:58:31.595Z,9.24
2023-05-05T01:59:35.592Z,9.28
2023-05-05T02:00:38.405Z,9.28
2023-05-05T02:01:41.007Z,9.32
2023-05-05T02:02:46.674Z,9.33
2023-05-05T02:03:50.613Z,9.36
2023-05-05T02:04:54.504Z,9.31
2023-05-05T02:06:00.209Z,9.09
2023-05-05T02:07:03.540Z,8.89
2023-05-05T02:08:05.944Z,8.82
2023-05-05T02:09:11.749Z,8.91
2023-05-05T02:10:14.369Z,8.98
2023-05-05T02:11:18.670Z,9.05
2023-05-05T02:12:21.449Z,9.00
2023-05-05T02:13:25.128Z,8.99
2023-05-05T02:14:28.902Z,8.92
2023-05-05T02:15:31.605Z,8.93
2023-05-05T02:16:33.930Z,8.96
2023-05-05T02:17:35.592Z,8.98
2023-05-05T02:18:37.614Z,8.98
2023-05-05T02:19:42.995Z,8.95
2023-05-05T02:20:46.955Z,8.95
2023-05-05T02:21:48.523Z,8.91
2023-05-05T02:22:50.241Z,8.91
2023-05-05T02:23:52.627Z,8.91
2023-05-05T02:24:54.782Z,8.95
2023-05-05T02:26:02.996Z,8.98
2023-05-05T02:27:07.281Z,9.01
2023-05-05T02:28:21.165Z,9.05
2023-05-05T02:29:44.961Z,9.04
2023-05-05T02:30:55.540Z,9.07
2023-05-05T02:32:07.233Z,9.08
2023-05-05T02:33:10.114Z,9.09
2023-05-05T02:34:16.117Z,9.00
2023-05-05T02:35:21.515Z,9.00
2023-05-05T02:36:27.501Z,9.02
2023-05-05T02:37:34.080Z,8.97
2023-05-05T02:38:40.245Z,8.95
2023-05-05T02:39:47.194Z,8.97
2023-05-05T02:40:55.762Z,8.98
2023-05-05T02:41:59.218Z,8.96
2023-05-05T02:43:07.861Z,8.95
2023-05-05T02:44:12.533Z,8.99
2023-05-05T02:45:19.936Z,8.98
2023-05-05T02:46:23.549Z,9.04
2023-05-05T02:47:34.329Z,9.06
2023-05-05T02:48:35.924Z,9.02
2023-05-05T02:49:37.540Z,8.99
2023-05-05T02:50:39.192Z,8.96
2023-05-05T02:51:50.380Z,8.93
2023-05-05T02:52:59.704Z,8.93
2023-05-05T02:54:01.999Z,8.88
2023-05-05T02:55:05.360Z,8.98
2023-05-05T02:58:00.608Z,9.02
2023-05-05T02:59:19.477Z,9.02
2023-05-05T03:00:23.809Z,8.97
2023-05-05T03:01:34.190Z,8.98
2023-05-05T03:02:47.861Z,8.97
2023-05-05T03:04:08.393Z,9.00
2023-05-05T03:05:23.743Z,9.04
2023-05-05T03:06:28.308Z,9.16
2023-05-05T03:07:52.673Z,9.15
2023-05-05T03:09:11.224Z,9.13
2023-05-05T03:10:21.234Z,9.09
2023-05-05T03:11:37.077Z,9.13
2023-05-05T03:12:48.340Z,9.14
2023-05-05T03:14:08.686Z,9.24
2023-05-05T03:15:11.077Z,9.20
2023-05-05T03:16:15.446Z,9.14
2023-05-05T03:17:19.525Z,9.06
2023-05-05T03:18:23.508Z,9.02
2023-05-05T03:19:32.428Z,8.99
2023-05-05T03:20:36.397Z,8.98
2023-05-05T03:21:42.023Z,9.01
2023-05-05T03:22:44.155Z,8.93
2023-05-05T03:23:48.285Z,8.97
2023-05-05T03:24:54.538Z,8.96
2023-05-05T03:25:58.756Z,8.95
2023-05-05T03:27:04.978Z,8.93
2023-05-05T03:28:10.704Z,8.94
2023-05-05T03:29:13.674Z,8.96
2023-05-05T03:30:15.312Z,9.02
2023-05-05T03:31:22.854Z,9.00
2023-05-05T03:32:28.811Z,9.05
2023-05-05T03:33:31.019Z,9.07
2023-05-05T03:34:34.841Z,9.09
2023-05-05T03:35:37.951Z,9.15
2023-05-05T03:36:41.924Z,9.16
2023-05-05T03:37:46.235Z,9.11
2023-05-05T03:38:50.382Z,9.13
2023-05-05T03:39:53.974Z,9.10
2023-05-05T03:40:56.568Z,9.12
2023-05-05T03:42:00.763Z,9.23
2023-05-05T03:43:05.927Z,9.21
2023-05-05T03:44:07.475Z,9.02
2023-05-05T03:45:10.669Z,8.90
2023-05-05T03:46:13.918Z,8.69
2023-05-05T03:47:17.024Z,8.53
2023-05-05T03:48:19.675Z,8.32
2023-05-05T03:49:21.620Z,8.19
2023-05-05T03:50:24.258Z,8.15
2023-05-05T03:51:26.000Z,8.01
2023-05-05T03:52:27.875Z,7.88
2023-05-05T03:53:29.750Z,7.80
2023-05-05T03:54:31.399Z,7.64
2023-05-05T03:55:32.986Z,7.60
2023-05-05T03:56:34.539Z,7.58
2023-05-05T03:57:36.082Z,7.51
2023-05-05T03:58:37.705Z,7.44
2023-05-05T03:59:39.294Z,7.38
2023-05-05T04:00:41.205Z,7.26
2023-05-05T04:01:43.074Z,7.31
2023-05-05T04:02:44.703Z,7.36
2023-05-05T04:03:48.522Z,7.50
2023-05-05T04:04:50.195Z,7.55
2023-05-05T04:05:51.759Z,7.51
2023-05-05T04:06:53.464Z,7.42
2023-05-05T04:07:55.065Z,7.43
2023-05-05T04:08:56.652Z,7.57
2023-05-05T04:09:58.247Z,7.67
2023-05-05T04:11:00.055Z,7.65
2023-05-05T04:12:01.687Z,7.62
2023-05-05T04:13:03.836Z,7.50
2023-05-05T04:14:06.252Z,7.50
2023-05-05T04:15:08.283Z,7.40
2023-05-05T04:16:10.187Z,7.39
2023-05-05T04:17:13.155Z,7.50
2023-05-05T04:18:14.856Z,7.62
2023-05-05T04:19:16.423Z,7.72
2023-05-05T04:20:18.018Z,7.80
2023-05-05T04:21:19.582Z,7.96
2023-05-05T04:22:21.389Z,8.10
2023-05-05T04:23:23.101Z,8.17
2023-05-05T04:24:24.990Z,8.22
2023-05-05T04:25:28.461Z,8.30
2023-05-05T04:26:30.328Z,8.36
2023-05-05T04:27:32.127Z,8.47
2023-05-05T04:28:34.932Z,8.54
2023-05-05T04:29:36.582Z,8.60
2023-05-05T04:30:38.204Z,8.64
2023-05-05T04:31:39.801Z,8.69
2023-05-05T04:32:41.464Z,8.80
2023-05-05T04:33:43.572Z,8.84
2023-05-05T04:34:45.503Z,8.92
2023-05-05T04:35:47.092Z,8.96
2023-05-05T04:36:49.137Z,9.00
2023-05-05T04:37:51.111Z,9.14
2023-05-05T04:38:52.764Z,9.25
2023-05-05T04:39:54.489Z,9.37
2023-05-05T04:40:56.190Z,9.49
2023-05-05T04:41:57.745Z,9.48
2023-05-05T04:42:59.479Z,9.53
2023-05-05T04:44:01.019Z,9.62
2023-05-05T04:45:02.979Z,9.65
2023-05-05T04:46:05.324Z,9.69
2023-05-05T04:47:09.976Z,9.77
2023-05-05T04:48:12.526Z,9.84
2023-05-05T04:49:14.109Z,9.92
2023-05-05T04:50:16.110Z,9.99
2023-05-05T04:51:17.684Z,10.09
2023-05-05T04:52:19.323Z,10.17
2023-05-05T04:53:20.895Z,10.27
2023-05-05T04:54:22.632Z,10.38
2023-05-05T04:55:24.189Z,10.47
2023-05-05T04:56:25.748Z,10.61
2023-05-05T04:57:27.310Z,10.78
2023-05-05T04:58:29.010Z,10.93
2023-05-05T04:59:30.711Z,11.03
2023-05-05T05:00:32.320Z,11.11
2023-05-05T05:01:35.221Z,11.23
2023-05-05T05:02:38.999Z,11.28
2023-05-05T05:03:40.728Z,11.33
2023-05-05T05:04:43.141Z,11.50
2023-05-05T05:05:46.094Z,11.59
2023-05-05T05:06:48.024Z,11.71
2023-05-05T05:07:49.590Z,11.72
2023-05-05T05:08:51.171Z,11.80
2023-05-05T05:09:52.704Z,12.04
2023-05-05T05:10:54.286Z,12.15
2023-05-05T05:11:59.635Z,12.28
2023-05-05T05:13:01.541Z,12.48
2023-05-05T05:14:03.161Z,12.58
2023-05-05T05:15:05.248Z,12.73
2023-05-05T05:16:07.675Z,12.88
2023-05-05T05:17:09.386Z,13.04
2023-05-05T05:18:10.930Z,13.23
2023-05-05T05:19:13.545Z,13.40
2023-05-05T05:20:15.164Z,13.62
2023-05-05T05:21:16.786Z,13.90
2023-05-05T05:22:18.600Z,14.17
2023-05-05T05:23:20.228Z,14.43
2023-05-05T05:24:21.807Z,14.69
2023-05-05T05:25:24.137Z,14.83
2023-05-05T05:26:25.810Z,14.86
2023-05-05T05:27:27.414Z,14.93
2023-05-05T05:28:30.140Z,15.02
2023-05-05T05:29:33.829Z,14.91
2023-05-05T05:30:36.184Z,15.07
2023-05-05T05:31:40.028Z,15.30
2023-05-05T05:32:41.985Z,15.57
2023-05-05T05:33:43.947Z,15.81
2023-05-05T05:34:47.547Z,15.91
2023-05-05T05:35:49.467Z,15.78
2023-05-05T05:36:52.608Z,16.00
2023-05-05T05:37:54.400Z,16.22
2023-05-05T05:38:56.036Z,16.32
2023-05-05T05:39:57.607Z,16.13
2023-05-05T05:41:05.051Z,15.71
2023-05-05T05:42:06.598Z,15.55
2023-05-05T05:43:08.280Z,15.54
2023-05-05T05:44:11.140Z,15.70
2023-05-05T05:45:12.782Z,15.98
2023-05-05T05:46:14.870Z,16.15
2023-05-05T05:47:17.425Z,16.19
2023-05-05T05:48:19.498Z,16.30
2023-05-05T05:49:21.146Z,16.07
2023-05-05T05:50:22.893Z,15.99
2023-05-05T05:51:24.514Z,16.05
2023-05-05T05:52:26.091Z,15.74
2023-05-05T05:53:27.864Z,15.23
2023-05-05T05:54:30.082Z,15.12
2023-05-05T05:55:31.763Z,14.95
2023-05-05T05:56:33.580Z,15.06
2023-05-05T05:57:35.273Z,15.24
2023-05-05T05:58:37.739Z,15.37
2023-05-05T05:59:39.330Z,15.42
2023-05-05T06:00:41.261Z,15.34
2023-05-05T06:01:44.684Z,15.27
2023-05-05T06:02:46.321Z,15.24
2023-05-05T06:03:51.696Z,15.04
2023-05-05T06:04:53.683Z,14.82
2023-05-05T06:05:55.522Z,14.70
2023-05-05T06:06:57.474Z,14.59
2023-05-05T06:07:59.414Z,14.58
2023-05-05T06:09:02.119Z,14.50
2023-05-05T06:10:25.165Z,14.42
2023-05-05T06:11:29.551Z,14.36
2023-05-05T06:12:31.090Z,14.31
2023-05-05T06:13:32.658Z,14.20
2023-05-05T06:14:34.244Z,14.21
2023-05-05T06:15:36.043Z,14.16
2023-05-05T06:16:39.154Z,14.07
2023-05-05T06:17:44.741Z,14.13
2023-05-05T06:18:47.005Z,14.21
2023-05-05T06:19:48.675Z,14.29
2023-05-05T06:20:50.880Z,14.39
2023-05-05T06:21:53.782Z,14.49
2023-05-05T06:22:55.372Z,14.50
2023-05-05T06:23:57.673Z,14.55
2023-05-05T06:24:59.280Z,14.51
2023-05-05T06:26:00.939Z,14.54
2023-05-05T06:27:02.529Z,14.55
2023-05-05T06:28:04.282Z,14.54
2023-05-05T06:29:05.916Z,14.64
2023-05-05T06:30:08.173Z,14.67
2023-05-05T06:31:09.957Z,14.71
2023-05-05T06:32:11.501Z,14.70
2023-05-05T06:33:13.036Z,14.71
2023-05-05T06:34:14.593Z,14.77
2023-05-05T06:35:16.216Z,14.77
2023-05-05T06:36:17.788Z,14.77
2023-05-05T06:37:19.404Z,14.83
2023-05-05T06:38:21.020Z,14.84
2023-05-05T06:39:22.552Z,14.80
2023-05-05T06:40:24.111Z,14.90
2023-05-05T06:41:25.666Z,15.00
2023-05-05T06:42:27.268Z,14.90
2023-05-05T06:43:29.345Z,14.96
2023-05-05T06:44:34.162Z,15.06
2023-05-05T06:45:35.818Z,15.03
2023-05-05T06:46:37.411Z,15.12
2023-05-05T06:47:39.099Z,15.20
2023-05-05T06:48:41.032Z,15.28
2023-05-05T06:49:42.608Z,15.23
2023-05-05T06:50:44.251Z,15.32
2023-05-05T06:51:45.824Z,15.40
2023-05-05T06:52:47.395Z,15.50
2023-05-05T06:53:48.934Z,15.51
2023-05-05T06:54:50.493Z,15.43
2023-05-05T06:55:52.077Z,15.40
2023-05-05T06:56:53.634Z,15.41
2023-05-05T06:57:55.212Z,15.47
2023-05-05T06:58:56.764Z,15.51
2023-05-05T06:59:58.448Z,15.58
2023-05-05T07:01:00.089Z,15.67
2023-05-05T07:02:01.708Z,15.77
2023-05-05T07:03:03.566Z,15.82
2023-05-05T07:04:05.278Z,15.91
2023-05-05T07:05:07.137Z,15.93
2023-05-05T07:06:08.782Z,15.95
2023-05-05T07:07:10.388Z,16.01
2023-05-05T07:08:12.657Z,16.15
2023-05-05T07:09:15.225Z,16.25
2023-05-05T07:10:18.609Z,16.29
2023-05-05T07:11:21.378Z,16.25
2023-05-05T07:12:23.144Z,16.32
2023-05-05T07:13:24.742Z,16.35
2023-05-05T07:14:26.291Z,16.34
2023-05-05T07:15:29.534Z,16.27
2023-05-05T07:16:31.488Z,16.14
2023-05-05T07:17:33.051Z,16.20
2023-05-05T07:18:34.638Z,16.25
2023-05-05T07:19:36.176Z,16.16
2023-05-05T07:20:37.782Z,16.02
2023-05-05T07:21:39.495Z,16.01
2023-05-05T07:22:41.053Z,16.10
2023-05-05T07:23:42.633Z,16.18
2023-05-05T07:24:44.215Z,16.33
2023-05-05T07:25:45.817Z,16.46
2023-05-05T07:26:47.365Z,16.59
2023-05-05T07:27:48.969Z,16.59
2023-05-05T07:28:50.562Z,16.68
2023-05-05T07:29:52.102Z,16.76
2023-05-05T07:30:53.673Z,16.78
2023-05-05T07:31:55.230Z,16.68
2023-05-05T07:32:56.939Z,16.60
2023-05-05T07:33:58.572Z,16.61
2023-05-05T07:35:00.159Z,16.73
2023-05-05T07:36:01.769Z,16.85
2023-05-05T07:37:04.081Z,16.92
2023-05-05T07:38:05.713Z,17.04
2023-05-05T07:39:07.291Z,17.11
2023-05-05T07:40:09.357Z,17.25
2023-05-05T07:41:11.159Z,17.28
2023-05-05T07:42:12.749Z,17.31
2023-05-05T07:43:14.306Z,17.35
2023-05-05T07:44:15.872Z,17.42
2023-05-05T07:45:17.568Z,17.54
2023-05-05T07:46:19.284Z,17.70
2023-05-05T07:47:20.959Z,17.83
2023-05-05T07:48:22.633Z,17.86
2023-05-05T07:49:24.673Z,17.88
2023-05-05T07:50:26.319Z,17.90
2023-05-05T07:51:27.951Z,17.90
2023-05-05T07:52:44.218Z,17.82
2023-05-05T07:53:49.674Z,17.80
2023-05-05T07:54:51.211Z,17.90
2023-05-05T07:55:52.795Z,18.00
2023-05-05T07:56:54.372Z,18.12
2023-05-05T07:57:55.959Z,18.12
2023-05-05T07:58:57.520Z,18.03
2023-05-05T07:59:59.091Z,17.87
2023-05-05T08:01:00.668Z,17.83
2023-05-05T08:02:02.255Z,17.85
2023-05-05T08:03:04.056Z,17.93
2023-05-05T08:04:06.064Z,17.90
2023-05-05T08:05:08.371Z,17.90
2023-05-05T08:06:10.522Z,17.99
2023-05-05T08:07:12.094Z,18.14
2023-05-05T08:08:13.634Z,18.21
2023-05-05T08:09:15.178Z,18.32
2023-05-05T08:10:16.703Z,18.43
2023-05-05T08:11:19.433Z,18.46
2023-05-05T08:12:20.987Z,18.40
2023-05-05T08:13:22.543Z,18.30
2023-05-05T08:14:24.120Z,18.33
2023-05-05T08:15:25.727Z,18.43
2023-05-05T08:16:27.553Z,18.48
2023-05-05T08:17:29.183Z,18.52
2023-05-05T08:18:30.780Z,18.51
2023-05-05T08:19:32.292Z,18.50
2023-05-05T08:20:33.801Z,18.52
2023-05-05T08:21:35.408Z,18.59
2023-05-05T08:22:36.944Z,18.63
2023-05-05T08:23:39.498Z,18.45
2023-05-05T08:24:41.031Z,18.30
2023-05-05T08:25:43.522Z,18.30
2023-05-05T08:26:45.166Z,18.48
2023-05-05T08:27:46.741Z,18.51
2023-05-05T08:28:48.384Z,18.64
2023-05-05T08:29:49.918Z,18.78
2023-05-05T08:30:51.678Z,18.91
2023-05-05T08:31:53.279Z,18.92
2023-05-05T08:32:54.883Z,18.93
2023-05-05T08:33:56.657Z,19.00
2023-05-05T08:34:58.420Z,19.09
2023-05-05T08:36:00.168Z,19.14
2023-05-05T08:37:01.698Z,19.13
2023-05-05T08:38:03.282Z,19.12
2023-05-05T08:39:04.848Z,19.16
2023-05-05T08:40:07.696Z,19.18
2023-05-05T08:41:12.855Z,19.24
2023-05-05T08:42:22.276Z,19.29
2023-05-05T08:43:30.808Z,19.30
2023-05-05T08:44:33.468Z,19.35
2023-05-05T08:45:35.471Z,19.50
2023-05-05T08:46:39.055Z,19.54
2023-05-05T08:47:40.733Z,19.52
2023-05-05T08:48:43.950Z,19.50
2023-05-05T08:49:47.186Z,19.56
2023-05-05T08:50:55.834Z,19.66
2023-05-05T08:52:01.067Z,19.78
2023-05-05T08:53:16.882Z,19.84
2023-05-05T08:54:19.877Z,20.00
2023-05-05T08:55:24.052Z,20.12
2023-05-05T08:56:34.152Z,20.30
2023-05-05T08:57:49.072Z,20.43
2023-05-05T08:58:51.639Z,20.56
2023-05-05T08:59:54.405Z,20.48
2023-05-05T09:00:56.666Z,20.46
2023-05-05T09:01:59.396Z,20.51
2023-05-05T09:03:01.250Z,20.63
2023-05-05T09:04:05.771Z,20.67
2023-05-05T09:05:08.106Z,20.76
2023-05-05T09:06:10.563Z,20.84
2023-05-05T09:07:12.356Z,20.88
2023-05-05T09:08:14.078Z,20.99
2023-05-05T09:09:15.667Z,21.06
2023-05-05T09:10:17.995Z,21.10
2023-05-05T09:11:19.611Z,21.14
2023-05-05T09:12:22.227Z,21.14
2023-05-05T09:13:24.943Z,21.22
2023-05-05T09:14:26.441Z,21.20
2023-05-05T09:15:28.001Z,21.15
2023-05-05T09:16:29.685Z,21.14
2023-05-05T09:17:31.358Z,21.06
2023-05-05T09:18:32.928Z,21.04
2023-05-05T09:19:56.675Z,21.02
2023-05-05T09:20:59.603Z,21.04
2023-05-05T09:22:01.251Z,21.06
2023-05-05T09:23:16.521Z,21.12
2023-05-05T09:24:18.048Z,21.22
2023-05-05T09:25:19.564Z,21.21
2023-05-05T09:26:21.115Z,21.15
2023-05-05T09:27:22.664Z,21.15
2023-05-05T09:28:24.286Z,21.16
2023-05-05T09:29:26.162Z,21.20
2023-05-05T09:30:27.705Z,21.19
2023-05-05T09:31:32.900Z,21.24
2023-05-05T09:32:43.469Z,21.14
2023-05-05T09:33:46.103Z,21.03
2023-05-05T09:34:58.651Z,20.92
2023-05-05T09:36:00.226Z,21.02
2023-05-05T09:37:01.872Z,21.10
2023-05-05T09:38:12.765Z,21.17
2023-05-05T09:39:19.166Z,21.24
2023-05-05T09:40:21.278Z,21.36
2023-05-05T09:41:43.462Z,21.54
2023-05-05T09:42:45.644Z,21.66
2023-05-05T09:43:51.573Z,21.58
2023-05-05T09:44:53.743Z,21.54
2023-05-05T09:46:06.916Z,21.68
2023-05-05T09:47:22.091Z,21.72
2023-05-05T09:48:30.067Z,21.76
2023-05-05T09:49:31.622Z,21.80
2023-05-05T09:50:43.890Z,21.89
2023-05-05T09:51:46.586Z,21.99
2023-05-05T09:52:59.394Z,21.80
2023-05-05T09:54:00.940Z,21.73
2023-05-05T09:55:02.643Z,21.81
2023-05-05T09:56:04.549Z,21.89
2023-05-05T09:57:06.162Z,22.02
2023-05-05T09:58:20.185Z,22.11
2023-05-05T09:59:22.831Z,22.01
2023-05-05T10:00:37.746Z,22.06
2023-05-05T10:01:39.291Z,22.12
2023-05-05T10:02:40.892Z,22.09
2023-05-05T10:03:51.500Z,21.96
2023-05-05T10:05:12.064Z,21.97
2023-05-05T10:06:13.612Z,21.96
2023-05-05T10:07:24.254Z,22.00
2023-05-05T10:08:27.793Z,22.06
2023-05-05T10:09:29.700Z,22.08
2023-05-05T10:10:31.316Z,21.97
2023-05-05T10:11:34.216Z,21.72
2023-05-05T10:12:36.475Z,21.61
2023-05-05T10:13:40.978Z,21.46
2023-05-05T10:14:43.428Z,21.30
2023-05-05T10:15:46.974Z,21.30
2023-05-05T10:16:50.566Z,21.38
2023-05-05T10:18:06.179Z,21.50
2023-05-05T10:19:11.572Z,21.40
2023-05-05T10:20:14.744Z,21.44
2023-05-05T10:21:20.328Z,21.62
2023-05-05T10:22:23.080Z,21.74
2023-05-05T10:23:34.530Z,21.76
2023-05-05T10:24:42.661Z,21.94
2023-05-05T10:25:53.334Z,22.09
2023-05-05T10:26:56.704Z,22.06
2023-05-05T10:28:00.524Z,22.07
2023-05-05T10:29:05.312Z,22.04
2023-05-05T10:30:08.252Z,22.11
2023-05-05T10:31:25.820Z,22.18
2023-05-05T10:32:56.814Z,22.12
2023-05-05T10:34:34.700Z,22.21
2023-05-05T10:35:41.094Z,22.35
2023-05-05T10:36:42.722Z,22.31
2023-05-05T10:37:44.668Z,22.24
2023-05-05T10:38:46.595Z,22.28
2023-05-05T10:39:49.945Z,22.37
2023-05-05T10:40:52.370Z,22.42
2023-05-05T10:41:53.972Z,22.32
2023-05-05T10:42:55.900Z,22.35
2023-05-05T10:44:00.396Z,22.41
2023-05-05T10:45:03.077Z,22.42
2023-05-05T10:46:05.031Z,22.37
2023-05-05T10:47:07.791Z,22.43
2023-05-05T10:48:22.701Z,22.46
2023-05-05T10:49:39.446Z,22.49
2023-05-05T10:51:15.348Z,22.37
2023-05-05T10:52:28.932Z,22.45
2023-05-05T10:53:39.059Z,22.55
2023-05-05T10:54:57.667Z,22.65
2023-05-05T10:56:23.647Z,22.58
2023-05-05T10:57:28.543Z,22.56
2023-05-05T10:58:55.488Z,22.56
2023-05-05T11:00:00.323Z,22.55
2023-05-05T11:01:02.713Z,22.51
2023-05-05T11:02:26.407Z,22.48
2023-05-05T11:03:28.501Z,22.49
2023-05-05T11:04:30.775Z,22.54
2023-05-05T11:05:32.385Z,22.56
2023-05-05T11:06:33.884Z,22.55
2023-05-05T11:07:37.151Z,22.60
2023-05-05T11:08:44.034Z,22.67
2023-05-05T11:10:02.706Z,22.78
2023-05-05T11:11:05.600Z,22.86
2023-05-05T11:12:07.669Z,22.87
2023-05-05T11:13:09.172Z,22.86
2023-05-05T11:14:20.485Z,22.76
2023-05-05T11:15:28.086Z,22.79
2023-05-05T11:16:41.598Z,22.68
2023-05-05T11:17:47.004Z,22.45
2023-05-05T11:18:48.593Z,22.36
2023-05-05T11:19:50.218Z,22.34
2023-05-05T11:20:57.678Z,22.47
2023-05-05T11:22:02.384Z,22.57
2023-05-05T11:23:03.961Z,22.68
2023-05-05T11:24:28.768Z,22.78
2023-05-05T11:25:36.565Z,22.81
2023-05-05T11:26:51.529Z,22.74
2023-05-05T11:28:05.948Z,22.87
2023-05-05T11:29:07.553Z,22.99
2023-05-05T11:30:10.322Z,23.12
2023-05-05T11:31:16.570Z,23.07
2023-05-05T11:32:18.157Z,23.11
2023-05-05T11:33:36.513Z,23.11
2023-05-05T11:34:48.494Z,23.11
2023-05-05T11:36:05.992Z,23.15
2023-05-05T11:37:08.466Z,23.17
2023-05-05T11:38:10.278Z,23.20
2023-05-05T11:39:17.484Z,23.26
2023-05-05T11:40:30.396Z,23.26
2023-05-05T11:41:31.926Z,23.28
2023-05-05T11:42:33.882Z,23.33
2023-05-05T11:43:35.756Z,23.39
2023-05-05T11:44:37.954Z,23.40
2023-05-05T11:45:39.565Z,23.50
2023-05-05T11:47:03.720Z,23.61
2023-05-05T11:48:28.278Z,23.61
2023-05-05T11:49:31.880Z,23.64
2023-05-05T11:50:33.466Z,23.65
2023-05-05T11:51:35.522Z,23.73
2023-05-05T11:52:37.088Z,23.58
2023-05-05T11:53:42.565Z,23.51
2023-05-05T11:54:46.253Z,23.59
2023-05-05T11:55:47.812Z,23.61
2023-05-05T11:56:50.387Z,23.56
2023-05-05T11:57:53.008Z,23.62
2023-05-05T11:59:10.886Z,23.76
2023-05-05T12:00:13.051Z,23.84
2023-05-05T12:01:15.500Z,23.82
2023-05-05T12:02:20.661Z,23.85
2023-05-05T12:03:22.434Z,23.82
2023-05-05T12:04:24.168Z,23.77
2023-05-05T12:05:25.856Z,23.77
2023-05-05T12:06:27.506Z,23.71
2023-05-05T12:07:31.218Z,23.62
2023-05-05T12:08:39.656Z,23.63
2023-05-05T12:09:43.215Z,23.70
2023-05-05T12:10:45.523Z,23.67
2023-05-05T12:11:55.463Z,23.66
2023-05-05T12:12:57.088Z,23.72
2023-05-05T12:14:11.764Z,23.74
2023-05-05T12:15:13.324Z,23.69
2023-05-05T12:16:15.912Z,23.70
2023-05-05T12:17:21.632Z,23.63
2023-05-05T12:18:23.209Z,23.75
2023-05-05T12:19:24.953Z,23.74
2023-05-05T12:20:30.616Z,23.64
2023-05-05T12:21:32.403Z,23.64
2023-05-05T12:22:34.111Z,23.71
2023-05-05T12:23:39.085Z,23.79
2023-05-05T12:24:40.687Z,23.89
2023-05-05T12:25:42.194Z,23.83
2023-05-05T12:26:43.783Z,23.82
2023-05-05T12:27:52.637Z,23.89
2023-05-05T12:28:55.200Z,23.88
2023-05-05T12:30:09.943Z,23.93
2023-05-05T12:31:11.841Z,23.96
2023-05-05T12:32:28.974Z,24.00
2023-05-05T12:33:30.706Z,23.93
2023-05-05T12:34:32.737Z,23.78
2023-05-05T12:35:34.816Z,23.75
2023-05-05T12:36:36.753Z,23.71
2023-05-05T12:37:39.043Z,23.66
2023-05-05T12:38:40.870Z,23.61
2023-05-05T12:39:42.364Z,23.52
2023-05-05T12:40:45.982Z,23.62
2023-05-05T12:41:47.620Z,23.72
2023-05-05T12:42:49.176Z,23.63
2023-05-05T12:43:58.148Z,23.58
2023-05-05T12:44:59.696Z,23.55
2023-05-05T12:46:11.976Z,23.63
2023-05-05T12:47:14.510Z,23.54
2023-05-05T12:48:22.277Z,23.42
2023-05-05T12:49:23.799Z,23.37
2023-05-05T12:50:32.317Z,23.35
2023-05-05T12:51:37.409Z,23.39
2023-05-05T12:52:44.512Z,23.44
2023-05-05T12:53:48.826Z,23.38
2023-05-05T12:54:57.592Z,23.32
2023-05-05T12:55:59.126Z,23.32
2023-05-05T12:57:11.177Z,23.39
2023-05-05T12:58:12.689Z,23.43
2023-05-05T12:59:23.042Z,23.51
2023-05-05T13:00:25.344Z,23.52
2023-05-05T13:01:28.057Z,23.51
2023-05-05T13:02:36.044Z,23.53
2023-05-05T13:03:37.775Z,23.38
2023-05-05T13:04:57.016Z,23.32
2023-05-05T13:05:58.586Z,23.24
2023-05-05T13:07:13.520Z,23.11
2023-05-05T13:08:15.152Z,23.10
2023-05-05T13:09:27.257Z,23.17
2023-05-05T13:10:28.790Z,23.17
2023-05-05T13:11:30.378Z,23.24
2023-05-05T13:12:31.984Z,23.30
2023-05-05T13:13:33.546Z,23.24
2023-05-05T13:14:35.325Z,23.20
2023-05-05T13:15:36.867Z,23.29
2023-05-05T13:16:38.459Z,23.40
2023-05-05T13:17:40.044Z,23.38
2023-05-05T13:18:48.686Z,23.31
2023-05-05T13:19:50.182Z,23.26
2023-05-05T13:20:51.730Z,23.30
2023-05-05T13:21:57.288Z,23.17
2023-05-05T13:22:58.828Z,23.25
2023-05-05T13:24:12.367Z,23.17
2023-05-05T13:25:21.855Z,23.14
2023-05-05T13:26:23.384Z,23.10
2023-05-05T13:27:24.934Z,23.16
2023-05-05T13:28:26.426Z,23.22
2023-05-05T13:29:31.422Z,23.30
2023-05-05T13:30:33.313Z,23.37
2023-05-05T13:31:34.979Z,23.37
2023-05-05T13:32:36.779Z,23.40
2023-05-05T13:33:38.407Z,23.33
2023-05-05T13:34:39.924Z,23.35
2023-05-05T13:35:41.474Z,23.30
2023-05-05T13:36:43.022Z,23.30
2023-05-05T13:37:44.544Z,23.30
2023-05-05T13:38:46.054Z,23.35
2023-05-05T13:39:47.588Z,23.24
2023-05-05T13:40:49.123Z,23.16
2023-05-05T13:41:50.668Z,23.16
2023-05-05T13:42:52.197Z,23.09
2023-05-05T13:43:53.803Z,23.09
2023-05-05T13:44:55.373Z,23.17
2023-05-05T13:46:05.551Z,23.24
2023-05-05T13:47:14.137Z,23.35
2023-05-05T13:48:15.868Z,23.36
2023-05-05T13:49:17.397Z,23.33
2023-05-05T13:50:18.909Z,23.34
2023-05-05T13:51:20.546Z,23.32
2023-05-05T13:52:22.106Z,23.31
2023-05-05T13:53:23.650Z,23.26
2023-05-05T13:54:25.247Z,23.28
2023-05-05T13:55:28.430Z,23.34
2023-05-05T13:56:30.060Z,23.29
2023-05-05T13:57:31.553Z,23.16
2023-05-05T13:58:33.134Z,23.13